createdAt,value
2016-03-28T13:02:02.979Z,984.3
2016-03-28T13:03:02.982Z,984.29
2016-03-28T13:04:03.203Z,984.24
2016-03-28T13:05:03.017Z,984.17
2016-03-28T13:06:03.020Z,984.17
2016-03-28T13:07:03.038Z,984.14
2016-03-28T13:08:03.072Z,984.11
2016-03-28T13:09:03.074Z,984.13
2016-03-28T13:10:03.077Z,984.11
2016-03-28T13:11:03.096Z,984.11
2016-03-28T13:12:03.113Z,984.1
2016-03-28T13:13:03.116Z,984.13
2016-03-28T13:14:03.135Z,984.11
2016-03-28T13:15:03.137Z,984.06
2016-03-28T13:16:03.155Z,984
2016-03-28T13:17:03.205Z,983.99
2016-03-28T13:18:03.176Z,983.99
2016-03-28T13:19:03.195Z,984.03
2016-03-28T13:20:03.213Z,984.02
2016-03-28T13:21:03.419Z,984.02
2016-03-28T13:22:03.234Z,983.96
2016-03-28T13:23:03.268Z,983.97
2016-03-28T13:24:03.255Z,983.98
2016-03-28T13:25:03.273Z,984
2016-03-28T13:26:03.292Z,983.96
2016-03-28T13:27:03.309Z,983.97
2016-03-28T13:28:03.312Z,983.97
2016-03-28T13:29:03.331Z,983.9
2016-03-28T13:30:03.333Z,983.93
2016-03-28T13:31:03.352Z,983.87
2016-03-28T13:32:03.370Z,983.86
2016-03-28T13:33:03.372Z,983.82
2016-03-28T13:34:03.391Z,983.85
2016-03-28T13:35:03.410Z,983.84
2016-03-28T13:36:03.413Z,983.82
2016-03-28T13:37:03.633Z,983.74
2016-03-28T13:38:03.433Z,983.81
2016-03-28T13:39:03.452Z,983.8
2016-03-28T13:40:03.469Z,983.8
2016-03-28T13:41:03.488Z,983.76
2016-03-28T13:42:03.491Z,983.78
2016-03-28T13:43:03.509Z,983.7
2016-03-28T13:44:03.512Z,983.69
2016-03-28T13:45:03.530Z,983.7
2016-03-28T13:46:03.533Z,983.71
2016-03-28T13:47:03.551Z,983.66
2016-03-28T13:48:03.554Z,983.7
2016-03-28T13:49:03.572Z,983.67
2016-03-28T13:50:03.590Z,983.75
2016-03-28T13:51:03.593Z,983.68
2016-03-28T13:52:03.611Z,983.71
2016-03-28T13:53:03.615Z,983.72
2016-03-28T13:54:03.632Z,983.69
2016-03-28T13:55:03.651Z,983.71
2016-03-28T13:56:03.654Z,983.65
2016-03-28T13:57:03.672Z,983.7
2016-03-28T13:58:03.675Z,983.65
2016-03-28T13:59:03.692Z,983.59
2016-03-28T14:00:03.711Z,983.58
2016-03-28T14:01:03.718Z,983.55
2016-03-28T14:02:03.721Z,983.53
2016-03-28T14:03:03.739Z,983.52
2016-03-28T14:04:03.741Z,983.57
2016-03-28T14:05:03.760Z,983.49
2016-03-28T14:06:03.763Z,983.58
2016-03-28T14:07:03.783Z,983.57
2016-03-28T14:08:03.801Z,983.5
2016-03-28T14:09:03.803Z,983.53
2016-03-28T14:10:03.822Z,983.48
2016-03-28T14:11:03.824Z,983.5
2016-03-28T14:12:03.842Z,983.54
2016-03-28T14:13:03.845Z,983.54
2016-03-28T14:14:03.864Z,983.48
2016-03-28T14:15:03.882Z,983.44
2016-03-28T14:16:03.885Z,983.45
2016-03-28T14:17:03.903Z,983.44
2016-03-28T14:18:03.905Z,983.46
2016-03-28T14:19:03.924Z,983.43
2016-03-28T14:20:03.943Z,983.46
2016-03-28T14:21:03.946Z,983.45
2016-03-28T14:22:03.949Z,983.44
2016-03-28T14:23:03.966Z,983.49
2016-03-28T14:24:03.985Z,983.46
2016-03-28T14:25:03.988Z,983.46
2016-03-28T14:26:04.005Z,983.52
2016-03-28T14:27:04.008Z,983.54
2016-03-28T14:28:04.027Z,983.5
2016-03-28T14:29:04.232Z,983.5
2016-03-28T14:30:04.048Z,983.46
2016-03-28T14:31:04.051Z,983.46
2016-03-28T14:32:04.068Z,983.41
2016-03-28T14:33:04.087Z,983.33
2016-03-28T14:34:04.090Z,983.32
2016-03-28T14:35:04.108Z,983.33
2016-03-28T14:36:04.111Z,983.35
2016-03-28T14:37:04.129Z,983.36
2016-03-28T14:38:04.132Z,983.34
2016-03-28T14:39:04.150Z,983.37
2016-03-28T14:40:04.168Z,983.29
2016-03-28T14:41:04.171Z,983.26
2016-03-28T14:42:04.189Z,983.27
2016-03-28T14:43:04.395Z,983.23
2016-03-28T14:44:04.242Z,983.17
2016-03-28T14:45:04.275Z,983.19
2016-03-28T14:46:04.231Z,983.12
2016-03-28T14:47:04.234Z,983.16
2016-03-28T14:48:04.252Z,983.17
2016-03-28T14:49:04.286Z,983.16
2016-03-28T14:50:04.367Z,983.17
2016-03-28T14:51:04.369Z,983.19
2016-03-28T14:52:04.311Z,983.14
2016-03-28T14:53:04.313Z,983.09
2016-03-28T14:54:04.316Z,983.1
2016-03-28T14:55:04.412Z,983.06
2016-03-28T14:56:04.336Z,983.04
2016-03-28T14:57:04.402Z,983.06
2016-03-28T14:58:04.374Z,983.04
2016-03-28T14:59:04.376Z,983.06
2016-03-28T15:00:04.394Z,983.02
2016-03-28T15:01:04.397Z,983.02
2016-03-28T15:02:04.493Z,983
2016-03-28T15:03:04.418Z,982.95
2016-03-28T15:04:04.436Z,982.93
2016-03-28T15:05:04.439Z,982.95
2016-03-28T15:06:04.457Z,982.93
2016-03-28T15:07:04.475Z,982.9
2016-03-28T15:08:04.478Z,982.9
2016-03-28T15:09:04.481Z,982.92
2016-03-28T15:10:04.498Z,982.87
2016-03-28T15:11:04.501Z,982.81
2016-03-28T15:12:04.520Z,982.76
2016-03-28T15:13:04.522Z,982.7
2016-03-28T15:14:04.588Z,982.73
2016-03-28T15:26:04.088Z,982.6
2016-03-28T15:27:04.357Z,982.6
2016-03-28T15:28:04.172Z,982.59
2016-03-28T15:29:04.113Z,982.65
2016-03-28T15:30:04.115Z,982.63
2016-03-28T15:31:04.118Z,982.64
2016-03-28T15:32:04.371Z,982.64
2016-03-28T15:33:04.139Z,982.64
2016-03-28T15:34:04.392Z,982.57
2016-03-28T15:35:04.254Z,982.54
2016-03-28T15:36:04.397Z,982.52
2016-03-28T15:37:04.181Z,982.47
2016-03-28T15:38:04.199Z,982.45
2016-03-28T15:39:04.436Z,982.43
2016-03-28T15:40:04.204Z,982.41
2016-03-28T15:41:04.254Z,982.41
2016-03-28T15:42:04.241Z,982.34
2016-03-28T15:43:04.447Z,982.33
2016-03-28T15:44:04.262Z,982.33
2016-03-28T15:45:04.265Z,982.32
2016-03-28T15:46:04.283Z,982.29
2016-03-28T15:47:04.286Z,982.31
2016-03-28T15:48:04.289Z,982.25
2016-03-28T15:49:04.400Z,982.26
2016-03-28T15:50:04.341Z,982.26
2016-03-28T15:51:04.313Z,982.26
2016-03-28T15:52:04.330Z,982.24
2016-03-28T15:53:04.739Z,982.23
2016-03-28T15:54:04.571Z,982.24
2016-03-28T15:55:04.354Z,982.24
2016-03-28T15:56:04.357Z,982.25
2016-03-28T15:57:04.375Z,982.21
2016-03-28T15:58:04.377Z,982.28
2016-03-28T15:59:04.396Z,982.22
2016-03-28T16:00:04.399Z,982.19
2016-03-28T16:01:04.418Z,982.23
2016-03-28T16:02:04.420Z,982.21
2016-03-28T16:03:04.423Z,982.23
2016-03-28T16:04:04.441Z,982.26
2016-03-28T16:05:04.443Z,982.26
2016-03-28T16:06:04.462Z,982.27
2016-03-28T16:07:04.465Z,982.33
2016-03-28T16:08:04.483Z,982.37
2016-03-28T16:09:04.486Z,982.31
2016-03-28T16:10:04.520Z,982.31
2016-03-28T16:11:04.506Z,982.35
2016-03-28T16:12:04.509Z,982.27
2016-03-28T16:13:04.528Z,982.28
2016-03-28T16:14:04.530Z,982.24
2016-03-28T16:16:04.755Z,982.25
2016-03-28T16:17:04.570Z,982.26
2016-03-28T16:18:04.572Z,982.31
2016-03-28T16:19:04.591Z,982.29
2016-03-28T16:20:04.594Z,982.24
2016-03-28T16:21:04.596Z,982.18
2016-03-28T16:22:04.614Z,982.16
2016-03-28T16:23:04.867Z,982.16
2016-03-28T16:24:04.635Z,982.16
2016-03-28T16:25:04.857Z,982.08
2016-03-28T16:26:04.657Z,982.05
2016-03-28T16:27:04.674Z,982.01
2016-03-28T16:28:05.083Z,981.97
2016-03-28T16:29:04.883Z,981.96
2016-03-28T16:30:04.698Z,981.96
2016-03-28T16:31:04.701Z,981.98
2016-03-28T16:32:04.719Z,982.05
2016-03-28T16:33:04.722Z,982.01
2016-03-28T16:34:04.740Z,981.99
2016-03-28T16:35:04.993Z,981.95
2016-03-28T16:36:04.996Z,981.97
2016-03-28T16:37:04.811Z,981.96
2016-03-28T16:38:04.923Z,981.95
2016-03-28T16:39:05.129Z,981.98
2016-03-28T16:40:04.804Z,981.93
2016-03-28T16:41:04.822Z,981.92
2016-03-28T16:42:04.903Z,981.93
2016-03-28T16:43:04.827Z,981.89
2016-03-28T16:44:04.923Z,981.89
2016-03-28T16:45:04.848Z,981.85
2016-03-28T16:46:05.008Z,981.87
2016-03-28T16:47:04.871Z,981.85
2016-03-28T16:48:04.967Z,981.84
2016-03-28T16:49:04.954Z,981.83
2016-03-28T16:50:05.315Z,981.8
2016-03-28T16:51:05.162Z,981.78
2016-03-28T16:52:05.023Z,981.75
2016-03-28T16:53:05.230Z,981.73
2016-03-28T16:54:04.951Z,981.7
2016-03-28T16:55:05.079Z,981.71
2016-03-28T16:56:05.004Z,981.72
2016-03-28T16:57:04.960Z,981.66
2016-03-28T16:58:04.978Z,981.67
2016-03-28T16:59:04.981Z,981.65
2016-03-28T17:00:04.984Z,981.68
2016-03-28T17:01:05.627Z,981.62
2016-03-28T17:02:05.208Z,981.65
2016-03-28T17:03:05.382Z,981.62
2016-03-28T17:04:05.291Z,981.59
2016-03-28T17:05:05.152Z,981.65
2016-03-28T17:06:05.203Z,981.63
2016-03-28T17:07:05.393Z,981.61
2016-03-28T17:08:05.067Z,981.65
2016-03-28T17:09:05.149Z,981.64
2016-03-28T17:11:05.091Z,981.63
2016-03-28T17:12:05.110Z,981.62
2016-03-28T17:13:05.346Z,981.62
2016-03-28T17:14:05.115Z,981.62
2016-03-28T17:15:05.243Z,981.65
2016-03-28T17:16:05.135Z,981.61
2016-03-28T17:17:05.139Z,981.65
2016-03-28T17:18:05.157Z,981.63
2016-03-28T17:19:05.160Z,981.69
2016-03-28T17:20:05.165Z,981.62
2016-03-28T17:21:05.306Z,981.73
2016-03-28T17:22:05.293Z,981.69
2016-03-28T17:23:05.312Z,981.72
2016-03-28T17:25:05.347Z,981.74
2016-03-28T17:26:05.225Z,981.72
2016-03-28T17:27:05.227Z,981.8
2016-03-28T17:28:05.230Z,981.79
2016-03-28T17:29:05.233Z,981.81
2016-03-28T17:30:05.235Z,981.82
2016-03-28T17:31:05.253Z,981.82
2016-03-28T17:32:05.366Z,981.84
2016-03-28T17:33:05.258Z,981.85
2016-03-28T17:34:05.277Z,981.84
2016-03-28T17:35:05.280Z,981.85
2016-03-28T17:36:05.330Z,981.84
2016-03-28T17:37:05.301Z,981.86
2016-03-28T17:38:05.304Z,981.84
2016-03-28T17:39:05.400Z,981.8
2016-03-28T17:40:05.324Z,981.84
2016-03-28T17:41:05.327Z,981.86
2016-03-28T17:42:05.330Z,981.88
2016-03-28T17:43:05.332Z,981.86
2016-03-28T17:44:05.351Z,981.93
2016-03-28T17:45:05.354Z,981.96
2016-03-28T17:46:05.357Z,981.92
2016-03-28T17:47:05.375Z,981.92
2016-03-28T17:48:05.378Z,981.92
2016-03-28T17:49:05.380Z,981.94
2016-03-28T17:50:05.383Z,981.95
2016-03-28T17:51:05.401Z,981.91
2016-03-28T17:52:05.403Z,981.95
2016-03-28T17:53:05.405Z,981.96
2016-03-28T17:54:05.471Z,981.92
2016-03-28T17:55:05.630Z,981.96
2016-03-28T17:56:05.445Z,981.96
2016-03-28T17:57:05.448Z,981.97
2016-03-28T17:58:05.450Z,981.93
2016-03-28T17:59:05.453Z,981.95
2016-03-28T18:00:05.472Z,981.96
2016-03-28T18:01:05.475Z,981.95
2016-03-28T18:02:05.477Z,981.99
2016-03-28T18:03:05.683Z,982
2016-03-28T18:04:05.499Z,981.98
2016-03-28T18:05:05.501Z,982
2016-03-28T18:06:05.519Z,981.99
2016-03-28T18:07:05.506Z,982.02
2016-03-28T18:08:05.727Z,982.02
2016-03-28T18:09:05.824Z,982.03
2016-03-28T18:10:05.732Z,982
2016-03-28T18:11:05.548Z,982.01
2016-03-28T18:12:05.551Z,982
2016-03-28T18:13:05.570Z,981.96
2016-03-28T18:14:05.572Z,981.98
2016-03-28T18:15:05.590Z,981.98
2016-03-28T18:16:05.578Z,981.94
2016-03-28T18:17:05.580Z,981.96
2016-03-28T18:18:05.598Z,981.98
2016-03-28T18:19:05.601Z,981.95
2016-03-28T18:20:05.604Z,982.01
2016-03-28T18:21:05.669Z,982.03
2016-03-28T18:22:05.625Z,982.03
2016-03-28T18:23:05.628Z,982.05
2016-03-28T18:24:05.693Z,982.04
2016-03-28T18:25:05.648Z,982.05
2016-03-28T18:26:05.651Z,982.02
2016-03-28T18:27:05.654Z,982
2016-03-28T18:29:05.675Z,981.92
2016-03-28T18:31:05.696Z,981.86
2016-03-28T18:32:05.730Z,981.81
2016-03-28T18:34:05.704Z,981.75
2016-03-28T18:35:05.722Z,981.76
2016-03-28T18:36:05.757Z,981.72
2016-03-28T18:37:05.743Z,981.71
2016-03-28T18:38:05.965Z,981.73
2016-03-28T18:39:05.748Z,981.77
2016-03-28T18:40:05.752Z,981.77
2016-03-28T18:41:05.754Z,981.74
2016-03-28T18:42:05.757Z,981.7
2016-03-28T18:43:05.775Z,981.69
2016-03-28T18:44:05.778Z,981.67
2016-03-28T18:46:05.783Z,981.64
2016-03-28T18:47:05.801Z,981.64
2016-03-28T18:48:05.804Z,981.64
2016-03-28T18:49:05.807Z,981.66
2016-03-28T18:50:05.810Z,981.65
2016-03-28T18:51:05.828Z,981.68
2016-03-28T18:52:05.831Z,981.64
2016-03-28T18:53:06.270Z,981.59
2016-03-28T18:54:05.836Z,981.63
2016-03-28T18:55:05.854Z,981.6
2016-03-28T18:56:05.856Z,981.58
2016-03-28T18:57:05.859Z,981.57
2016-03-28T18:58:05.862Z,981.59
2016-03-28T18:59:05.881Z,981.58
2016-03-28T19:00:05.883Z,981.57
2016-03-28T19:01:06.136Z,981.6
2016-03-28T19:02:05.888Z,981.58
2016-03-28T19:03:05.908Z,981.58
2016-03-28T19:04:05.910Z,981.59
2016-03-28T19:05:05.927Z,981.56
2016-03-28T19:06:05.916Z,981.61
2016-03-28T19:07:05.933Z,981.6
2016-03-28T19:08:05.931Z,981.59
2016-03-28T19:09:05.935Z,981.55
2016-03-28T19:10:05.937Z,981.51
2016-03-28T19:11:05.940Z,981.5
2016-03-28T19:12:05.959Z,981.5
2016-03-28T19:13:05.977Z,981.43
2016-03-28T19:14:05.964Z,981.41
2016-03-28T19:15:05.997Z,981.38
2016-03-28T19:16:05.985Z,981.35
2016-03-28T19:17:05.987Z,981.39
2016-03-28T19:18:06.006Z,981.4
2016-03-28T19:20:05.996Z,981.43
2016-03-28T19:21:05.999Z,981.46
2016-03-28T19:22:06.016Z,981.49
2016-03-28T19:23:06.019Z,981.54
2016-03-28T19:24:06.038Z,981.53
2016-03-28T19:25:06.024Z,981.46
2016-03-28T19:26:06.027Z,981.46
2016-03-28T19:27:06.046Z,981.47
2016-03-28T19:28:06.032Z,981.49
2016-03-28T19:29:06.036Z,981.46
2016-03-28T19:30:06.054Z,981.49
2016-03-28T19:31:06.259Z,981.51
2016-03-28T19:32:06.060Z,981.51
2016-03-28T19:33:06.265Z,981.54
2016-03-28T19:34:06.065Z,981.6
2016-03-28T19:35:06.068Z,981.55
2016-03-28T19:36:06.070Z,981.55
2016-03-28T19:37:06.089Z,981.57
2016-03-28T19:38:06.092Z,981.53
2016-03-28T19:39:06.109Z,981.5
2016-03-28T19:40:06.096Z,981.47
2016-03-28T19:41:06.115Z,981.44
2016-03-28T19:42:06.102Z,981.45
2016-03-28T19:43:06.119Z,981.47
2016-03-28T19:44:06.123Z,981.44
2016-03-28T19:45:06.125Z,981.42
2016-03-28T19:46:06.128Z,981.48
2016-03-28T19:47:06.131Z,981.43
2016-03-28T19:48:06.149Z,981.45
2016-03-28T19:49:06.152Z,981.43
2016-03-28T19:50:06.155Z,981.47
2016-03-28T19:51:06.157Z,981.5
2016-03-28T19:53:06.163Z,981.46
2016-03-28T19:54:06.416Z,981.42
2016-03-28T19:55:06.183Z,981.39
2016-03-28T19:56:06.171Z,981.34
2016-03-28T19:57:06.189Z,981.39
2016-03-28T19:58:06.191Z,981.37
2016-03-28T19:59:06.226Z,981.38
2016-03-28T20:00:06.196Z,981.4
2016-03-28T20:01:06.231Z,981.42
2016-03-28T20:02:06.202Z,981.47
2016-03-28T20:03:06.205Z,981.45
2016-03-28T20:04:06.223Z,981.45
2016-03-28T20:05:06.226Z,981.44
2016-03-28T20:06:06.229Z,981.45
2016-03-28T20:07:06.231Z,981.42
2016-03-28T20:08:06.234Z,981.4
2016-03-28T20:09:06.440Z,981.34
2016-03-28T20:10:06.255Z,981.35
2016-03-28T20:11:06.258Z,981.38
2016-03-28T20:12:06.261Z,981.38
2016-03-28T20:13:06.264Z,981.37
2016-03-28T20:14:06.282Z,981.39
2016-03-28T20:15:06.284Z,981.28
2016-03-28T20:16:06.505Z,981.23
2016-03-28T20:17:06.306Z,981.23
2016-03-28T20:19:06.326Z,981.26
2016-03-28T20:20:06.297Z,981.23
2016-03-28T20:21:06.300Z,981.19
2016-03-28T20:22:06.319Z,981.2
2016-03-28T20:23:06.322Z,981.09
2016-03-28T20:24:06.527Z,981.11
2016-03-28T20:25:06.529Z,981.12
2016-03-28T20:26:06.330Z,981.14
2016-03-28T20:27:06.535Z,981.17
2016-03-28T20:28:06.351Z,981.18
2016-03-28T20:29:06.353Z,981.21
2016-03-28T20:30:06.356Z,981.17
2016-03-28T20:31:06.359Z,981.16
2016-03-28T20:32:06.362Z,981.14
2016-03-28T20:33:06.364Z,981.18
2016-03-28T20:34:06.382Z,981.21
2016-03-28T20:35:06.385Z,981.2
2016-03-28T20:36:06.387Z,981.22
2016-03-28T20:37:06.390Z,981.21
2016-03-28T20:38:06.595Z,981.22
2016-03-28T20:39:06.396Z,981.25
2016-03-28T20:40:06.398Z,981.27
2016-03-28T20:41:06.417Z,981.28
2016-03-28T20:42:06.420Z,981.3
2016-03-28T20:43:06.437Z,981.29
2016-03-28T20:44:06.425Z,981.3
2016-03-28T20:45:06.443Z,981.33
2016-03-28T20:46:06.430Z,981.35
2016-03-28T20:47:06.651Z,981.42
2016-03-28T20:48:06.450Z,981.43
2016-03-28T20:49:06.453Z,981.55
2016-03-28T20:50:06.691Z,981.64
2016-03-28T20:51:06.459Z,981.71
2016-03-28T20:52:06.461Z,982.09
2016-03-28T20:53:06.480Z,982.36
2016-03-28T20:54:06.483Z,982.7
2016-03-28T20:55:06.485Z,982.84
2016-03-28T20:56:06.488Z,982.92
2016-03-28T20:57:06.554Z,983.06
2016-03-28T20:58:06.540Z,983.24
2016-03-28T20:59:06.513Z,983.14
2016-03-28T21:00:06.515Z,983.23
2016-03-28T21:01:06.517Z,983.29
2016-03-28T21:02:06.521Z,983.34
2016-03-28T21:03:06.523Z,983.23
2016-03-28T21:04:06.526Z,983.3
2016-03-28T21:05:06.543Z,983.31
2016-03-28T21:06:06.546Z,983.32
2016-03-28T21:07:06.548Z,983.37
2016-03-28T21:08:06.552Z,983.33
2016-03-28T21:09:06.554Z,983.28
2016-03-28T21:10:06.556Z,983.35
2016-03-28T21:11:06.559Z,983.31
2016-03-28T21:12:06.578Z,983.34
2016-03-28T21:13:06.581Z,983.35
2016-03-28T21:14:06.584Z,983.39
2016-03-28T21:15:06.586Z,983.35
2016-03-28T21:16:06.823Z,983.27
2016-03-28T21:17:06.592Z,983.28
2016-03-28T21:18:06.610Z,983.22
2016-03-28T21:19:06.597Z,983.26
2016-03-28T21:20:06.599Z,983.21
2016-03-28T21:21:06.603Z,983.17
2016-03-28T21:22:06.621Z,983.21
2016-03-28T21:23:06.623Z,983.17
2016-03-28T21:24:06.626Z,983.14
2016-03-28T21:25:06.629Z,983.12
2016-03-28T21:26:06.647Z,983.13
2016-03-28T21:27:06.838Z,983.14
2016-03-28T21:28:06.637Z,983.14
2016-03-28T21:29:06.640Z,983.1
2016-03-28T21:30:06.643Z,983.13
2016-03-28T21:31:06.660Z,983.03
2016-03-28T21:32:06.647Z,983.02
2016-03-28T21:33:06.681Z,982.94
2016-03-28T21:34:06.653Z,982.93
2016-03-28T21:35:06.656Z,983.03
2016-03-28T21:36:06.659Z,983.03
2016-03-28T21:37:06.692Z,983.01
2016-03-28T21:38:06.679Z,982.96
2016-03-28T21:39:06.682Z,982.96
2016-03-28T21:40:06.684Z,982.94
2016-03-28T21:41:06.687Z,982.97
2016-03-28T21:42:06.689Z,982.97
2016-03-28T21:43:06.693Z,982.98
2016-03-28T21:44:06.695Z,982.98
2016-03-28T21:45:06.698Z,982.96
2016-03-28T21:46:06.701Z,983.01
2016-03-28T21:47:06.703Z,983.06
2016-03-28T21:48:06.717Z,983.07
2016-03-28T21:49:06.695Z,983.07
2016-03-28T21:50:06.908Z,983.1
2016-03-28T21:51:06.682Z,983.04
2016-03-28T21:52:06.676Z,983.12
2016-03-28T21:53:06.688Z,983.1
2016-03-28T21:54:06.688Z,983.06
2016-03-28T21:55:06.812Z,983.11
2016-03-28T21:56:06.686Z,983.09
2016-03-28T21:57:06.671Z,983.1
2016-03-28T21:58:06.687Z,983.09
2016-03-28T21:59:06.688Z,983
2016-03-28T22:00:06.892Z,983.08
2016-03-28T22:01:06.691Z,983.04
2016-03-28T22:02:06.927Z,983.05
2016-03-28T22:03:06.695Z,982.85
2016-03-28T22:04:06.698Z,982.87
2016-03-28T22:05:06.700Z,982.79
2016-03-28T22:06:06.701Z,982.71
2016-03-28T22:07:06.704Z,982.63
2016-03-28T22:08:06.707Z,982.45
2016-03-28T22:09:06.709Z,982.18
2016-03-28T22:10:06.726Z,982.2
2016-03-28T22:11:06.916Z,982.15
2016-03-28T22:12:06.918Z,982.06
2016-03-28T22:13:06.719Z,982.01
2016-03-28T22:14:06.721Z,981.96
2016-03-28T22:15:06.724Z,981.77
2016-03-28T22:16:06.726Z,981.65
2016-03-28T22:17:06.729Z,981.13
2016-03-28T22:18:06.934Z,981.06
2016-03-28T22:19:06.734Z,981.11
2016-03-28T22:20:06.736Z,981.17
2016-03-28T22:21:06.740Z,981.15
2016-03-28T22:22:06.773Z,981.22
2016-03-28T22:23:06.745Z,981.33
2016-03-28T22:24:06.748Z,981.42
2016-03-28T22:25:06.765Z,981.54
2016-03-28T22:26:06.972Z,981.55
2016-03-28T22:27:06.756Z,981.65
2016-03-28T22:28:06.961Z,981.74
2016-03-28T22:29:06.792Z,981.74
2016-03-28T22:30:06.779Z,981.72
2016-03-28T22:31:06.767Z,981.79
2016-03-28T22:32:06.769Z,981.76
2016-03-28T22:33:06.772Z,981.76
2016-03-28T22:34:06.775Z,981.77
2016-03-28T22:35:06.777Z,981.82
2016-03-28T22:36:06.983Z,981.83
2016-03-28T22:37:06.783Z,981.87
2016-03-28T22:38:06.785Z,981.88
2016-03-28T22:39:07.194Z,981.89
2016-03-28T22:40:06.838Z,981.98
2016-03-28T22:41:06.793Z,981.97
2016-03-28T22:42:06.796Z,982.02
2016-03-28T22:43:06.799Z,981.99
2016-03-28T22:44:06.816Z,982.02
2016-03-28T22:45:06.819Z,982.14
2016-03-28T22:46:06.822Z,982.2
2016-03-28T22:47:06.824Z,982.24
2016-03-28T22:48:06.827Z,982.28
2016-03-28T22:49:06.814Z,982.28
2016-03-28T22:50:06.833Z,982.3
2016-03-28T22:51:06.835Z,982.39
2016-03-28T22:52:06.838Z,982.42
2016-03-28T22:53:06.841Z,982.48
2016-03-28T22:54:06.843Z,982.56
2016-03-28T22:55:06.878Z,982.59
2016-03-28T22:56:06.865Z,982.51
2016-03-28T22:57:06.851Z,982.38
2016-03-28T22:58:06.854Z,982.31
2016-03-28T22:59:06.856Z,982.32
2016-03-28T23:00:06.876Z,982.37
2016-03-28T23:01:06.862Z,982.34
2016-03-28T23:02:06.865Z,982.34
2016-03-28T23:03:06.868Z,982.37
2016-03-28T23:04:06.870Z,982.4
2016-03-28T23:05:06.873Z,982.44
2016-03-28T23:06:06.876Z,982.44
2016-03-28T23:07:06.878Z,982.51
2016-03-28T23:08:06.866Z,982.53
2016-03-28T23:09:06.884Z,982.46
2016-03-28T23:10:06.887Z,982.46
2016-03-28T23:11:06.889Z,982.45
2016-03-28T23:12:06.892Z,982.42
2016-03-28T23:13:06.894Z,982.47
2016-03-28T23:14:06.897Z,982.48
2016-03-28T23:15:06.899Z,982.47
2016-03-28T23:16:06.903Z,982.43
2016-03-28T23:17:06.905Z,982.42
2016-03-28T23:18:06.892Z,982.44
2016-03-28T23:19:06.910Z,982.41
2016-03-28T23:20:06.913Z,982.41
2016-03-28T23:21:06.916Z,982.42
2016-03-28T23:22:06.935Z,982.46
2016-03-28T23:23:06.921Z,982.41
2016-03-28T23:24:06.909Z,982.49
2016-03-28T23:25:06.911Z,982.49
2016-03-28T23:27:06.917Z,982.62
2016-03-28T23:28:06.919Z,982.66
2016-03-28T23:29:06.923Z,982.74
2016-03-28T23:30:06.940Z,982.73
2016-03-28T23:31:06.928Z,982.72
2016-03-28T23:32:06.931Z,982.7
2016-03-28T23:33:06.948Z,982.73
2016-03-28T23:34:06.936Z,982.75
2016-03-28T23:35:06.938Z,982.77
2016-03-28T23:36:06.942Z,982.78
2016-03-28T23:37:06.944Z,982.75
2016-03-28T23:38:06.946Z,982.7
2016-03-28T23:40:06.952Z,982.63
2016-03-28T23:41:06.954Z,982.66
2016-03-28T23:42:06.973Z,982.68
2016-03-28T23:43:06.960Z,982.72
2016-03-28T23:44:06.978Z,982.73
2016-03-28T23:45:06.980Z,982.72
2016-03-28T23:46:06.968Z,982.74
2016-03-28T23:47:06.971Z,982.67
2016-03-28T23:48:06.973Z,982.71
2016-03-28T23:49:06.976Z,982.72
2016-03-28T23:50:06.979Z,982.73
2016-03-28T23:51:06.981Z,982.78
2016-03-28T23:52:07.187Z,982.82
2016-03-28T23:53:06.987Z,982.83
2016-03-28T23:54:06.990Z,982.8
2016-03-28T23:55:06.992Z,982.8
2016-03-28T23:56:06.995Z,982.79
2016-03-28T23:57:06.997Z,982.78
2016-03-28T23:58:07.000Z,982.74
2016-03-28T23:59:07.003Z,982.7
